Terminal Aerodrome Forecast
Issued by NWS

Home | Current Version | Previous Version | Text Only | Print | Product List | Glossary On
Versions: 1 2 3 4 5 6 7 8 9 10 11 12 13 14 15
000
FTUS46 KSTO 250500
TAFRDD
TAF
KRDD 250538Z 2506/2606 19008KT P6SM VCSH BKN080
      TEMPO 2507/2511 6SM -SHRA BKN040
     FM251700 19008KT P6SM SCT100=

USA.gov is the U.S. government's official web portal to all federal, state and local government web resources and services.